createdAt,value
2018-02-18T00:01:13.020Z,90.40
2018-02-18T00:03:41.381Z,90.50
2018-02-18T00:06:09.587Z,90.60
2018-02-18T00:08:38.640Z,90.70
2018-02-18T00:11:06.872Z,90.60
2018-02-18T00:13:35.098Z,90.90
2018-02-18T00:16:03.375Z,90.50
2018-02-18T00:18:31.751Z,90.40
2018-02-18T00:21:00.842Z,90.40
2018-02-18T00:23:29.055Z,90.40
2018-02-18T00:25:57.404Z,90.40
2018-02-18T00:28:25.687Z,90.30
2018-02-18T00:30:53.948Z,90.40
2018-02-18T00:33:22.192Z,90.30
2018-02-18T00:35:50.430Z,90.20
2018-02-18T00:38:19.473Z,90.20
2018-02-18T00:40:47.727Z,90.20
2018-02-18T00:43:16.094Z,90.00
2018-02-18T00:45:44.429Z,90.10
2018-02-18T00:48:12.696Z,89.40
2018-02-18T00:50:41.069Z,89.60
2018-02-18T00:53:09.280Z,89.60
2018-02-18T00:55:38.287Z,89.70
2018-02-18T00:58:06.545Z,89.70
2018-02-18T01:00:34.816Z,89.80
2018-02-18T01:03:03.804Z,90.20
2018-02-18T01:05:32.054Z,89.90
2018-02-18T01:08:00.287Z,89.90
2018-02-18T01:10:28.514Z,90.00
2018-02-18T01:12:57.544Z,89.60
2018-02-18T01:15:25.873Z,89.60
2018-02-18T01:17:54.096Z,89.60
2018-02-18T01:20:22.428Z,89.80
2018-02-18T01:22:50.683Z,90.10
2018-02-18T01:25:18.975Z,89.80
2018-02-18T01:27:47.190Z,89.80
2018-02-18T01:30:16.209Z,88.90
2018-02-18T01:32:44.435Z,88.80
2018-02-18T01:35:12.690Z,89.00
2018-02-18T01:37:40.908Z,89.30
2018-02-18T01:40:09.167Z,89.60
2018-02-18T01:42:38.162Z,89.80
2018-02-18T01:45:06.418Z,89.80
2018-02-18T01:47:34.679Z,89.60
2018-02-18T01:50:14.940Z,89.80
2018-02-18T01:52:43.154Z,90.00
2018-02-18T01:55:11.488Z,90.00
2018-02-18T01:57:39.724Z,90.00
2018-02-18T02:00:08.040Z,89.80
2018-02-18T02:02:36.620Z,90.00
2018-02-18T02:05:04.840Z,89.90
2018-02-18T02:07:33.143Z,89.80
2018-02-18T02:10:01.405Z,90.00
2018-02-18T02:12:29.679Z,90.10
2018-02-18T02:14:57.935Z,90.10
2018-02-18T02:17:26.190Z,90.10
2018-02-18T02:19:56.099Z,90.10
2018-02-18T02:22:24.304Z,90.10
2018-02-18T02:24:52.640Z,90.00
2018-02-18T02:27:20.914Z,90.10
2018-02-18T02:29:49.884Z,89.70
2018-02-18T02:32:18.228Z,90.00
2018-02-18T02:34:46.467Z,89.70
2018-02-18T02:37:14.729Z,88.70
2018-02-18T02:39:43.114Z,89.10
2018-02-18T02:42:11.332Z,89.50
2018-02-18T02:44:39.581Z,89.50
2018-02-18T02:47:08.605Z,89.10
2018-02-18T02:49:36.882Z,89.10
2018-02-18T02:52:05.127Z,89.20
2018-02-18T02:54:34.199Z,89.30
2018-02-18T02:57:02.422Z,89.30
2018-02-18T02:59:30.685Z,89.20
2018-02-18T03:01:58.928Z,89.20
2018-02-18T03:04:27.198Z,89.40
2018-02-18T03:06:56.188Z,90.30
2018-02-18T03:09:24.439Z,90.00
2018-02-18T03:11:52.683Z,89.80
2018-02-18T03:14:20.904Z,89.30
2018-02-18T03:16:49.125Z,89.70
2018-02-18T03:19:17.376Z,89.70
2018-02-18T03:21:45.632Z,89.50
2018-02-18T03:24:13.916Z,88.40
2018-02-18T03:26:42.186Z,88.80
2018-02-18T03:29:10.460Z,88.70
2018-02-18T03:31:38.663Z,88.90
2018-02-18T03:34:07.700Z,88.70
2018-02-18T03:36:35.924Z,88.70
2018-02-18T03:39:04.893Z,89.30
2018-02-18T03:41:33.171Z,89.20
2018-02-18T03:44:01.384Z,89.60
2018-02-18T03:46:29.644Z,90.00
2018-02-18T03:48:58.714Z,89.60
2018-02-18T03:51:26.941Z,89.60
2018-02-18T03:53:55.263Z,89.40
2018-02-18T03:56:23.538Z,89.30
2018-02-18T03:58:51.767Z,89.70
2018-02-18T04:01:20.093Z,89.80
2018-02-18T04:03:48.328Z,90.00
2018-02-18T04:06:16.641Z,89.40
2018-02-18T04:08:44.915Z,89.50
2018-02-18T04:11:13.139Z,89.70
2018-02-18T04:13:42.127Z,89.70
2018-02-18T04:16:10.385Z,89.60
2018-02-18T04:18:39.400Z,89.10
2018-02-18T04:21:07.656Z,89.10
2018-02-18T04:23:35.911Z,89.40
2018-02-18T04:26:04.163Z,89.10
2018-02-18T04:28:32.390Z,89.00
2018-02-18T04:31:00.616Z,89.20
2018-02-18T04:33:28.898Z,89.60
2018-02-18T04:35:57.120Z,88.70
2018-02-18T04:38:25.399Z,89.00
2018-02-18T04:40:53.625Z,88.80
2018-02-18T04:43:21.885Z,89.30
2018-02-18T04:45:50.379Z,88.90
2018-02-18T04:48:18.654Z,88.70
2018-02-18T04:50:46.875Z,88.70
2018-02-18T04:53:15.099Z,89.10
2018-02-18T04:55:43.399Z,88.90
2018-02-18T04:58:12.400Z,89.10
2018-02-18T05:00:41.423Z,89.40
2018-02-18T05:03:09.740Z,89.40
2018-02-18T05:05:37.967Z,89.50
2018-02-18T05:08:06.311Z,89.20
2018-02-18T05:10:34.524Z,89.20
2018-02-18T05:13:02.896Z,89.20
2018-02-18T05:15:31.222Z,89.50
2018-02-18T05:17:59.539Z,89.20
2018-02-18T05:20:27.976Z,88.70
2018-02-18T05:22:56.192Z,89.00
2018-02-18T05:25:24.438Z,89.10
2018-02-18T05:27:53.451Z,89.50
2018-02-18T05:30:22.477Z,89.50
2018-02-18T05:32:50.733Z,89.50
2018-02-18T05:35:19.007Z,89.80
2018-02-18T05:37:47.242Z,89.10
2018-02-18T05:40:15.487Z,89.10
2018-02-18T05:42:43.805Z,88.80
2018-02-18T05:45:12.004Z,88.60
2018-02-18T05:47:40.337Z,88.90
2018-02-18T05:50:08.612Z,89.10
2018-02-18T05:52:36.835Z,89.00
2018-02-18T05:55:05.112Z,89.10
2018-02-18T05:57:33.372Z,89.70
2018-02-18T06:00:02.407Z,89.70
2018-02-18T06:02:30.643Z,89.70
2018-02-18T06:04:58.899Z,89.70
2018-02-18T06:07:27.977Z,89.70
2018-02-18T06:09:56.199Z,89.40
2018-02-18T06:12:24.523Z,88.90
2018-02-18T06:14:52.718Z,88.60
2018-02-18T06:17:21.792Z,89.10
2018-02-18T06:19:50.004Z,89.10
2018-02-18T06:22:19.028Z,89.00
2018-02-18T06:24:47.338Z,89.00
2018-02-18T06:27:15.545Z,89.20
2018-02-18T06:29:44.555Z,88.90
2018-02-18T06:32:12.878Z,88.90
2018-02-18T06:34:41.362Z,88.80
2018-02-18T06:37:09.736Z,88.60
2018-02-18T06:39:37.949Z,88.60
2018-02-18T06:42:06.200Z,88.30
2018-02-18T06:44:34.582Z,88.30
2018-02-18T06:47:02.790Z,88.00
2018-02-18T06:49:31.073Z,88.30
2018-02-18T06:51:59.398Z,88.30
2018-02-18T06:54:27.611Z,88.50
2018-02-18T06:56:55.885Z,88.10
2018-02-18T06:59:24.114Z,87.90
2018-02-18T07:01:52.349Z,88.20
2018-02-18T07:04:20.608Z,87.70
2018-02-18T07:06:49.626Z,87.90
2018-02-18T07:09:17.879Z,87.90
2018-02-18T07:11:46.860Z,88.10
2018-02-18T07:14:15.179Z,88.10
2018-02-18T07:16:43.398Z,88.20
2018-02-18T07:19:12.467Z,88.20
2018-02-18T07:21:40.720Z,88.20
2018-02-18T07:24:08.932Z,88.20
2018-02-18T07:26:37.292Z,87.60
2018-02-18T07:29:05.513Z,87.60
2018-02-18T07:31:33.951Z,87.80
2018-02-18T07:34:02.334Z,87.70
2018-02-18T07:36:30.555Z,87.20
2018-02-18T07:38:58.947Z,87.40
2018-02-18T07:41:27.189Z,87.50
2018-02-18T07:43:55.464Z,87.60
2018-02-18T07:46:24.481Z,87.10
2018-02-18T07:48:52.752Z,87.10
2018-02-18T07:51:20.984Z,86.90
2018-02-18T07:53:49.224Z,87.10
2018-02-18T07:56:17.535Z,86.60
2018-02-18T07:58:46.620Z,86.90
2018-02-18T08:01:14.900Z,86.90
2018-02-18T08:03:43.155Z,86.70
2018-02-18T08:06:11.380Z,86.60
2018-02-18T08:08:39.639Z,86.60
2018-02-18T08:11:07.959Z,86.60
2018-02-18T08:13:36.211Z,86.30
2018-02-18T08:16:04.472Z,86.40
2018-02-18T08:18:33.484Z,86.10
2018-02-18T08:21:01.741Z,86.10
2018-02-18T08:23:30.744Z,85.70
2018-02-18T08:25:59.188Z,85.70
2018-02-18T08:28:27.456Z,85.20
2018-02-18T08:30:55.696Z,84.90
2018-02-18T08:33:23.956Z,84.80
2018-02-18T08:35:52.240Z,84.70
2018-02-18T08:38:20.544Z,84.40
2018-02-18T08:40:48.769Z,84.40
2018-02-18T08:43:17.047Z,83.60
2018-02-18T08:45:46.062Z,84.10
2018-02-18T08:48:14.326Z,84.00
2018-02-18T08:50:42.574Z,83.90
2018-02-18T08:53:10.810Z,83.70
2018-02-18T08:55:39.090Z,83.70
2018-02-18T08:58:07.336Z,83.60
2018-02-18T09:00:35.599Z,83.30
2018-02-18T09:03:03.836Z,83.80
2018-02-18T09:05:33.606Z,83.40
2018-02-18T09:08:01.858Z,83.40
2018-02-18T09:10:30.095Z,83.50
2018-02-18T09:12:58.563Z,83.20
2018-02-18T09:15:26.799Z,83.10
2018-02-18T09:17:55.069Z,82.60
2018-02-18T09:20:23.295Z,82.00
2018-02-18T09:22:51.588Z,82.40
2018-02-18T09:25:20.604Z,81.50
2018-02-18T09:27:48.867Z,81.50
2018-02-18T09:30:17.935Z,81.20
2018-02-18T09:32:46.214Z,81.20
2018-02-18T09:35:14.490Z,81.20
2018-02-18T09:37:42.752Z,81.80
2018-02-18T09:40:11.039Z,81.60
2018-02-18T09:42:39.406Z,81.20
2018-02-18T09:45:07.689Z,80.90
2018-02-18T09:47:36.057Z,80.50
2018-02-18T09:50:04.293Z,80.80
2018-02-18T09:52:32.560Z,80.90
2018-02-18T09:55:00.805Z,81.00
2018-02-18T09:57:29.824Z,80.00
2018-02-18T09:59:58.077Z,79.90
2018-02-18T10:02:26.399Z,79.60
2018-02-18T10:04:54.674Z,80.20
2018-02-18T10:07:22.976Z,79.40
2018-02-18T10:09:51.253Z,79.60
2018-02-18T10:12:19.739Z,79.20
2018-02-18T10:14:48.112Z,78.50
2018-02-18T10:17:16.332Z,78.50
2018-02-18T10:19:44.668Z,78.60
2018-02-18T10:22:12.919Z,77.70
2018-02-18T10:24:41.187Z,78.30
2018-02-18T10:27:09.510Z,78.70
2018-02-18T10:29:37.769Z,78.50
2018-02-18T10:32:06.062Z,78.60
2018-02-18T10:34:35.100Z,78.60
2018-02-18T10:37:03.410Z,78.60
2018-02-18T10:39:31.670Z,79.30
2018-02-18T10:41:59.946Z,78.10
2018-02-18T10:44:28.249Z,78.60
2018-02-18T10:46:56.526Z,78.70
2018-02-18T10:49:24.787Z,78.30
2018-02-18T10:51:53.094Z,78.80
2018-02-18T10:54:22.264Z,79.40
2018-02-18T10:56:50.552Z,79.40
2018-02-18T10:59:19.731Z,79.90
2018-02-18T11:01:48.036Z,79.30
2018-02-18T11:04:17.035Z,80.00
2018-02-18T11:06:45.320Z,79.70
2018-02-18T11:09:13.580Z,80.20
2018-02-18T11:11:42.883Z,80.70
2018-02-18T11:14:11.227Z,80.60
2018-02-18T11:16:39.505Z,80.80
2018-02-18T11:19:08.544Z,81.00
2018-02-18T11:21:37.599Z,81.10
2018-02-18T11:24:05.877Z,81.10
2018-02-18T11:26:34.249Z,81.10
2018-02-18T11:29:02.519Z,81.70
2018-02-18T11:31:31.549Z,81.80
2018-02-18T11:34:00.603Z,81.80
2018-02-18T11:36:28.836Z,81.80
2018-02-18T11:38:57.122Z,81.70
2018-02-18T11:41:25.391Z,82.00
2018-02-18T11:43:53.703Z,81.80
2018-02-18T11:46:21.972Z,82.50
2018-02-18T11:48:50.256Z,82.70
2018-02-18T11:51:19.514Z,82.20
2018-02-18T11:53:47.756Z,82.30
2018-02-18T11:56:16.124Z,82.30
2018-02-18T11:58:45.305Z,82.70
2018-02-18T12:01:14.495Z,82.70
2018-02-18T12:03:42.783Z,82.70
2018-02-18T12:06:11.059Z,82.50
2018-02-18T12:08:39.428Z,81.70
2018-02-18T12:11:07.720Z,82.20
2018-02-18T12:13:35.943Z,82.40
2018-02-18T12:16:04.221Z,82.40
2018-02-18T12:18:32.456Z,82.60
2018-02-18T12:21:01.496Z,83.20
2018-02-18T12:23:29.799Z,83.20
2018-02-18T12:25:58.052Z,83.20
2018-02-18T12:28:26.359Z,83.00
2018-02-18T12:30:55.388Z,83.20
2018-02-18T12:33:24.446Z,83.30
2018-02-18T12:35:52.719Z,83.30
2018-02-18T12:38:20.999Z,82.60
2018-02-18T12:40:49.280Z,83.50
2018-02-18T12:43:17.538Z,82.60
2018-02-18T12:45:45.821Z,82.70
2018-02-18T12:48:14.088Z,82.60
2018-02-18T12:50:42.371Z,83.40
2018-02-18T12:53:10.625Z,83.70
2018-02-18T12:55:39.018Z,83.60
2018-02-18T12:58:08.225Z,84.10
2018-02-18T13:00:37.391Z,84.00
2018-02-18T13:03:06.424Z,83.50
2018-02-18T13:05:34.714Z,83.50
2018-02-18T13:08:03.000Z,83.10
2018-02-18T13:10:32.105Z,82.90
2018-02-18T13:13:00.465Z,82.90
2018-02-18T13:15:28.817Z,82.80
2018-02-18T13:17:57.062Z,82.30
2018-02-18T13:20:25.359Z,82.50
2018-02-18T13:22:54.454Z,81.90
2018-02-18T13:25:23.467Z,82.00
2018-02-18T13:27:51.825Z,82.00
2018-02-18T13:30:20.132Z,81.60
2018-02-18T13:32:48.384Z,81.00
2018-02-18T13:35:16.752Z,80.80
2018-02-18T13:37:45.031Z,80.70
2018-02-18T13:40:13.417Z,80.60
2018-02-18T13:42:41.725Z,80.00
2018-02-18T13:45:10.750Z,80.50
2018-02-18T13:47:39.021Z,80.50
2018-02-18T13:50:07.285Z,80.80
2018-02-18T13:52:35.599Z,81.30
2018-02-18T13:55:03.854Z,81.50
2018-02-18T13:57:32.139Z,81.30
2018-02-18T14:00:00.369Z,81.40
2018-02-18T14:02:28.706Z,80.10
2018-02-18T14:04:57.238Z,81.20
2018-02-18T14:07:25.488Z,81.50
2018-02-18T14:09:54.581Z,81.90
2018-02-18T14:12:23.599Z,82.30
2018-02-18T14:14:51.892Z,82.30
2018-02-18T14:17:20.159Z,82.60
2018-02-18T14:19:48.410Z,82.80
2018-02-18T14:22:17.472Z,83.00
2018-02-18T14:24:45.748Z,83.00
2018-02-18T14:27:14.121Z,83.50
2018-02-18T14:29:42.402Z,83.20
2018-02-18T14:32:10.670Z,83.10
2018-02-18T14:34:38.899Z,83.10
2018-02-18T14:37:09.541Z,82.40
2018-02-18T14:39:37.854Z,83.10
2018-02-18T14:42:17.915Z,83.70
2018-02-18T14:44:58.787Z,83.40
2018-02-18T14:47:39.133Z,83.30
2018-02-18T14:50:19.212Z,83.80
2018-02-18T14:53:00.267Z,83.30
2018-02-18T14:55:40.336Z,83.20
2018-02-18T14:58:08.714Z,82.90
2018-02-18T15:00:37.789Z,83.50
2018-02-18T15:03:06.057Z,83.50
2018-02-18T15:05:34.448Z,83.10
2018-02-18T15:08:02.677Z,82.80
2018-02-18T15:10:30.944Z,82.90
2018-02-18T15:13:00.091Z,83.70
2018-02-18T15:15:28.432Z,83.70
2018-02-18T15:17:56.704Z,83.50
2018-02-18T15:20:25.017Z,83.10
2018-02-18T15:22:53.313Z,82.80
2018-02-18T15:25:21.538Z,82.80
2018-02-18T15:27:49.960Z,83.10
2018-02-18T15:30:19.037Z,84.40
2018-02-18T15:32:47.311Z,83.70
2018-02-18T15:35:15.815Z,84.10
2018-02-18T15:37:44.092Z,84.30
2018-02-18T15:40:12.377Z,83.90
2018-02-18T15:42:41.646Z,82.50
2018-02-18T15:45:10.735Z,83.50
2018-02-18T15:47:38.990Z,83.90
2018-02-18T15:50:07.446Z,83.50
2018-02-18T15:52:35.808Z,83.50
2018-02-18T15:55:04.862Z,84.20
2018-02-18T15:57:33.138Z,84.20
2018-02-18T16:00:01.374Z,83.60
2018-02-18T16:02:29.686Z,83.50
2018-02-18T16:04:57.969Z,83.10
2018-02-18T16:07:27.418Z,82.90
2018-02-18T16:09:55.743Z,83.50
2018-02-18T16:12:24.128Z,83.50
2018-02-18T16:14:52.390Z,82.90
2018-02-18T16:17:20.653Z,83.00
2018-02-18T16:19:48.971Z,82.80
2018-02-18T16:22:17.326Z,82.40
2018-02-18T16:24:46.419Z,83.70
2018-02-18T16:27:14.659Z,83.00
2018-02-18T16:29:42.949Z,80.90
2018-02-18T16:32:11.356Z,80.90
2018-02-18T16:34:39.626Z,81.50
2018-02-18T16:37:07.974Z,82.30
2018-02-18T16:39:36.973Z,82.10
2018-02-18T16:42:05.475Z,82.10
2018-02-18T16:44:33.753Z,81.90
2018-02-18T16:47:02.028Z,81.60
2018-02-18T16:49:30.309Z,81.60
2018-02-18T16:51:58.630Z,82.30
2018-02-18T16:54:26.896Z,82.60
2018-02-18T16:56:55.158Z,82.80
2018-02-18T16:59:24.215Z,82.80
2018-02-18T17:01:52.496Z,82.70
2018-02-18T17:04:20.873Z,83.00
2018-02-18T17:06:49.148Z,82.90
2018-02-18T17:09:17.385Z,82.90
2018-02-18T17:11:45.802Z,83.00
2018-02-18T17:14:14.052Z,83.00
2018-02-18T17:16:42.344Z,83.00
2018-02-18T17:19:10.732Z,82.50
2018-02-18T17:21:39.008Z,83.00
2018-02-18T17:24:07.383Z,83.00
2018-02-18T17:26:35.624Z,82.60
2018-02-18T17:29:03.942Z,82.90
2018-02-18T17:31:32.222Z,83.20
2018-02-18T17:34:00.518Z,83.10
2018-02-18T17:36:28.752Z,84.30
2018-02-18T17:38:57.025Z,83.30
2018-02-18T17:41:26.243Z,83.60
2018-02-18T17:43:54.518Z,83.60
2018-02-18T17:46:22.787Z,83.30
2018-02-18T17:48:51.038Z,83.50
2018-02-18T17:51:19.544Z,83.80
2018-02-18T17:53:47.812Z,84.20
2018-02-18T17:56:16.120Z,84.10
2018-02-18T17:58:44.469Z,84.20
2018-02-18T18:01:12.767Z,84.40
2018-02-18T18:03:41.088Z,84.50
2018-02-18T18:06:09.397Z,84.60
2018-02-18T18:08:37.666Z,84.90
2018-02-18T18:11:05.953Z,84.50
2018-02-18T18:13:34.232Z,84.50
2018-02-18T18:16:02.609Z,84.90
2018-02-18T18:18:30.909Z,84.80
2018-02-18T18:20:59.264Z,85.10
2018-02-18T18:23:27.531Z,85.30
2018-02-18T18:25:55.926Z,85.30
2018-02-18T18:28:24.199Z,85.20
2018-02-18T18:30:52.460Z,85.60
2018-02-18T18:33:20.794Z,85.90
2018-02-18T18:35:49.082Z,86.10
2018-02-18T18:38:17.356Z,86.20
2018-02-18T18:40:45.729Z,86.20
2018-02-18T18:43:14.146Z,86.30
2018-02-18T18:45:42.392Z,86.20
2018-02-18T18:48:10.662Z,86.40
2018-02-18T18:50:38.996Z,86.20
2018-02-18T18:53:07.313Z,86.40
2018-02-18T18:55:35.732Z,86.50
2018-02-18T18:58:04.104Z,86.30
2018-02-18T19:00:32.487Z,86.30
2018-02-18T19:03:00.858Z,86.40
2018-02-18T19:05:29.108Z,86.50
2018-02-18T19:07:57.373Z,86.60
2018-02-18T19:10:25.671Z,86.40
2018-02-18T19:12:53.982Z,86.30
2018-02-18T19:15:23.052Z,85.70
2018-02-18T19:17:51.587Z,85.60
2018-02-18T19:20:19.899Z,85.60
2018-02-18T19:22:48.301Z,85.50
2018-02-18T19:25:16.576Z,85.40
2018-02-18T19:27:44.848Z,86.30
2018-02-18T19:30:13.220Z,86.70
2018-02-18T19:32:41.599Z,86.90
2018-02-18T19:35:09.907Z,85.80
2018-02-18T19:37:38.298Z,85.80
2018-02-18T19:40:07.300Z,85.60
2018-02-18T19:42:35.657Z,85.60
2018-02-18T19:45:04.016Z,85.70
2018-02-18T19:47:32.385Z,85.30
2018-02-18T19:50:01.488Z,85.60
2018-02-18T19:52:29.801Z,85.60
2018-02-18T19:54:58.957Z,85.60
2018-02-18T19:57:27.336Z,85.60
2018-02-18T19:59:55.649Z,85.70
2018-02-18T20:02:24.812Z,85.80
2018-02-18T20:04:53.151Z,85.80
2018-02-18T20:07:21.446Z,86.10
2018-02-18T20:09:50.543Z,85.90
2018-02-18T20:12:18.920Z,85.70
2018-02-18T20:14:47.169Z,86.00
2018-02-18T20:17:15.486Z,85.80
2018-02-18T20:19:43.780Z,85.40
2018-02-18T20:22:12.061Z,85.70
2018-02-18T20:24:40.390Z,85.20
2018-02-18T20:27:08.666Z,85.00
2018-02-18T20:29:37.052Z,84.80
2018-02-18T20:32:05.479Z,84.70
2018-02-18T20:34:33.808Z,84.50
2018-02-18T20:37:02.085Z,83.60
2018-02-18T20:39:30.349Z,83.90
2018-02-18T20:41:58.848Z,84.30
2018-02-18T20:44:27.225Z,84.20
2018-02-18T20:46:55.626Z,84.00
2018-02-18T20:49:24.796Z,83.90
2018-02-18T20:51:53.093Z,83.90
2018-02-18T20:54:21.565Z,84.70
2018-02-18T20:56:50.646Z,83.80
2018-02-18T20:59:18.915Z,83.70
2018-02-18T21:01:47.169Z,83.80
2018-02-18T21:04:15.452Z,83.80
2018-02-18T21:06:43.758Z,83.60
2018-02-18T21:09:12.138Z,83.70
2018-02-18T21:11:41.289Z,83.30
2018-02-18T21:14:09.698Z,83.40
2018-02-18T21:16:37.991Z,83.60
2018-02-18T21:19:06.294Z,83.60
2018-02-18T21:21:34.629Z,83.60
2018-02-18T21:24:02.908Z,83.50
2018-02-18T21:26:31.201Z,83.40
2018-02-18T21:28:59.472Z,83.70
2018-02-18T21:31:27.731Z,83.70
2018-02-18T21:33:56.119Z,83.80
2018-02-18T21:36:24.389Z,83.70
2018-02-18T21:38:52.767Z,83.50
2018-02-18T21:41:20.996Z,83.20
2018-02-18T21:43:49.620Z,83.20
2018-02-18T21:46:17.917Z,83.20
2018-02-18T21:48:46.186Z,83.20
2018-02-18T21:51:14.500Z,83.30
2018-02-18T21:53:42.788Z,83.90
2018-02-18T21:56:11.197Z,83.40
2018-02-18T21:58:39.464Z,83.30
2018-02-18T22:01:07.851Z,83.10
2018-02-18T22:03:36.150Z,83.00
2018-02-18T22:06:05.323Z,83.00
2018-02-18T22:08:33.597Z,83.10
2018-02-18T22:11:01.834Z,82.90
2018-02-18T22:13:30.147Z,82.80
2018-02-18T22:15:58.372Z,82.90
2018-02-18T22:18:26.700Z,83.00
2018-02-18T22:20:54.936Z,83.10
2018-02-18T22:23:23.253Z,83.10
2018-02-18T22:25:51.731Z,83.10
2018-02-18T22:28:19.984Z,83.30
2018-02-18T22:30:48.284Z,83.40
2018-02-18T22:33:16.534Z,83.20
2018-02-18T22:35:44.849Z,83.50
2018-02-18T22:38:13.225Z,83.80
2018-02-18T22:40:41.498Z,83.80
2018-02-18T22:43:09.867Z,83.80
2018-02-18T22:45:38.185Z,83.60
2018-02-18T22:48:06.413Z,83.60
2018-02-18T22:50:34.692Z,83.70
2018-02-18T22:53:03.279Z,83.60
2018-02-18T22:55:31.657Z,84.10
2018-02-18T22:57:59.872Z,84.00
2018-02-18T23:00:28.138Z,84.20
2018-02-18T23:02:56.482Z,84.00
2018-02-18T23:05:30.387Z,84.00
2018-02-18T23:07:58.623Z,83.40
2018-02-18T23:10:26.948Z,83.60
2018-02-18T23:12:55.218Z,83.50
2018-02-18T23:15:23.441Z,83.40
2018-02-18T23:17:51.970Z,83.20
2018-02-18T23:20:20.200Z,83.00
2018-02-18T23:22:48.568Z,83.10
2018-02-18T23:25:16.853Z,83.20
2018-02-18T23:27:45.103Z,83.30
2018-02-18T23:30:14.107Z,83.40
2018-02-18T23:32:42.437Z,83.40
2018-02-18T23:35:10.712Z,83.70
2018-02-18T23:37:38.989Z,83.40
2018-02-18T23:40:07.267Z,83.60
2018-02-18T23:42:35.520Z,83.40
2018-02-18T23:45:03.906Z,83.50
2018-02-18T23:47:32.317Z,83.30
2018-02-18T23:50:00.775Z,83.40
2018-02-18T23:52:30.077Z,83.40
2018-02-18T23:54:58.387Z,83.40
2018-02-18T23:57:26.639Z,83.70
2018-02-18T23:59:55.005Z,83.60
